Time;durP1;ratioP1;P1;durP2;ratioP2;P2;SDS_P1;SDS_P2;PMS_P1;PMS_P2;Temp;Humidity;BMP_temperature;BMP_pressure;BME280_temperature;BME280_humidity;BME280_pressure;Samples;Min_cycle;Max_cycle;Signal;HPM_P1;HPM_P2
2024/03/21 00:00:10;;;;;;;20.97;16.40;;;9.20;99.90;;;-141.84;67.14;18883.13;5078850;28;20228;-52
2024/03/21 00:02:38;;;;;;;21.27;16.53;;;9.20;99.90;;;-141.84;67.15;18881.09;5070770;28;20224;-51
2024/03/21 00:05:06;;;;;;;21.77;16.77;;;9.10;99.90;;;-141.84;67.48;18887.19;5076798;28;20202;-50
2024/03/21 00:07:32;;;;;;;20.37;16.97;;;9.10;99.90;;;-141.84;67.81;18895.31;5081060;28;20235;-49
2024/03/21 00:10:00;;;;;;;21.53;17.20;;;9.10;99.90;;;-141.84;67.91;18881.09;5063753;28;20232;-54
2024/03/21 00:12:26;;;;;;;19.70;16.70;;;9.10;99.90;;;-141.84;67.96;18907.50;5062823;28;20221;-54
2024/03/21 00:14:54;;;;;;;21.03;16.90;;;9.10;99.90;;;-141.84;67.98;18887.19;5078908;28;20221;-51
2024/03/21 00:17:23;;;;;;;21.90;17.10;;;9.10;99.90;;;-141.84;68.41;18901.41;5083906;28;20253;-52
2024/03/21 00:19:49;;;;;;;24.40;17.47;;;9.10;99.90;;;-141.84;68.40;18862.81;5083461;28;20663;-51
2024/03/21 00:22:17;;;;;;;24.60;17.97;;;9.10;99.90;;;-141.84;68.30;18903.44;5063114;28;20224;-48
2024/03/21 00:24:44;;;;;;;20.93;17.07;;;9.10;99.90;;;-141.84;67.82;18875.00;5071868;28;20232;-56
2024/03/21 00:27:11;;;;;;;24.00;17.47;;;9.10;99.90;;;-141.84;68.05;18881.09;5063023;28;20294;-53
2024/03/21 00:29:38;;;;;;;23.17;17.63;;;9.10;99.90;;;-141.84;68.21;18887.19;5059628;28;20250;-51
2024/03/21 00:32:07;;;;;;;21.90;17.17;;;9.20;99.90;;;-141.84;68.36;18858.75;5083978;28;20192;-54
2024/03/21 00:34:34;;;;;;;22.40;17.33;;;9.10;99.90;;;-141.84;68.43;18893.28;5082907;28;20208;-51
2024/03/21 00:37:02;;;;;;;21.50;17.43;;;9.10;99.90;;;-141.84;68.64;18883.13;5080797;28;20235;-54
2024/03/21 00:39:28;;;;;;;21.30;16.50;;;9.10;99.90;;;-141.84;68.64;18915.63;5073329;28;20225;-53
2024/03/21 00:41:55;;;;;;;21.73;17.47;;;9.10;99.90;;;-141.84;68.87;18883.13;5079421;28;20240;-50
2024/03/21 00:44:21;;;;;;;21.67;17.67;;;9.10;99.90;;;-141.84;68.75;18895.31;5063575;28;20214;-53
2024/03/21 00:46:49;;;;;;;24.20;17.60;;;9.10;99.90;;;-141.84;68.59;18899.38;5080858;28;20676;-52
2024/03/21 00:49:16;;;;;;;21.90;16.83;;;9.10;99.90;;;-141.84;68.64;18875.00;5053998;28;20225;-49
2024/03/21 00:51:45;;;;;;;22.07;16.93;;;9.10;99.90;;;-141.84;68.64;18895.31;5023331;28;20216;-51
2024/03/21 00:54:11;;;;;;;22.10;17.40;;;9.10;99.90;;;-141.84;69.09;18917.66;5085725;28;20285;-55
2024/03/21 00:56:39;;;;;;;23.40;17.97;;;9.10;99.90;;;-141.84;69.57;18899.38;5082063;28;20231;-51
2024/03/21 00:59:06;;;;;;;20.17;16.97;;;9.10;99.90;;;-141.84;69.64;18935.97;5079522;28;20197;-54
2024/03/21 01:01:33;;;;;;;21.17;16.77;;;9.10;99.90;;;-141.84;69.98;18899.38;5065061;28;20685;-53
2024/03/21 01:04:00;;;;;;;20.17;16.40;;;9.00;99.90;;;-141.84;70.27;18931.91;5074693;28;20232;-51
2024/03/21 01:06:26;;;;;;;23.17;17.87;;;9.00;99.90;;;-141.84;70.28;18950.19;5088081;28;20579;-54
2024/03/21 01:08:55;;;;;;;20.47;17.03;;;9.00;99.90;;;-141.84;70.46;18925.81;5084532;28;20231;-55
2024/03/21 01:11:22;;;;;;;24.50;16.87;;;8.90;99.90;;;-141.84;70.95;18962.38;5085763;28;20220;-52
2024/03/21 01:13:49;;;;;;;21.43;18.07;;;8.90;99.90;;;-141.84;71.38;18948.16;5079793;28;20618;-50
2024/03/21 01:16:16;;;;;;;23.23;17.73;;;8.90;99.90;;;-141.84;71.51;18964.41;5062018;28;20212;-47
2024/03/21 01:18:43;;;;;;;21.50;17.67;;;8.90;99.90;;;-141.84;71.82;18972.53;5062010;28;20220;-51
2024/03/21 01:21:09;;;;;;;24.07;17.87;;;8.80;99.90;;;-141.84;72.24;19009.09;5072434;28;20243;-54
2024/03/21 01:23:37;;;;;;;21.67;17.70;;;8.80;99.90;;;-141.84;72.26;18982.69;5085477;28;20227;-53
2024/03/21 01:26:05;;;;;;;22.90;17.67;;;8.80;99.90;;;-141.84;72.46;19041.63;5082341;28;20204;-48
2024/03/21 01:28:32;;;;;;;21.83;17.27;;;8.80;99.90;;;-141.84;72.40;19013.16;5073934;28;20219;-51
2024/03/21 01:31:00;;;;;;;24.27;18.33;;;8.80;99.90;;;-141.84;71.22;18929.88;5081440;28;20277;-52
2024/03/21 01:33:28;;;;;;;21.87;17.50;;;8.90;99.90;;;-141.84;71.64;18962.38;5064587;28;20220;-50
2024/03/21 01:35:55;;;;;;;23.77;18.47;;;8.90;99.90;;;-141.84;71.99;18982.69;5071041;28;20707;-50
2024/03/21 01:38:23;;;;;;;22.60;17.43;;;8.90;99.90;;;-141.84;72.36;19005.03;5071107;28;20193;-51
2024/03/21 01:40:49;;;;;;;23.63;18.53;;;8.90;99.90;;;-141.84;71.73;18978.63;5069713;28;20681;-49
2024/03/21 01:43:23;;;;;;;23.10;17.90;;;9.20;99.90;;;-141.84;72.07;18982.69;5069857;28;20671;-49
2024/03/21 01:46:14;;;;;;;22.37;17.87;;;9.00;99.90;;;-141.84;72.69;19041.63;5070057;28;20223;-53
2024/03/21 01:48:44;;;;;;;23.43;17.67;;;9.00;99.90;;;-141.84;72.80;19041.63;5069214;28;20215;-50
2024/03/21 01:51:12;;;;;;;22.50;18.07;;;9.00;99.90;;;-141.84;72.73;19023.34;5065927;28;20571;-51
2024/03/21 01:53:41;;;;;;;22.20;17.53;;;9.00;99.90;;;-141.84;72.66;19037.56;5069931;28;20224;-50
2024/03/21 01:56:08;;;;;;;25.37;18.50;;;9.00;99.90;;;-141.84;72.64;18988.78;5064781;28;20197;-53
2024/03/21 01:58:37;;;;;;;22.30;18.77;;;9.00;99.90;;;-141.84;72.69;19045.69;5059016;28;20199;-53
2024/03/21 02:01:25;;;;;;;23.20;18.57;;;9.00;99.90;;;-141.84;73.03;19057.88;5068725;28;20261;-51
2024/03/21 02:03:53;;;;;;;22.67;18.63;;;8.90;99.90;;;-141.84;72.83;19013.16;5077181;28;20227;-52
2024/03/21 02:06:20;;;;;;;21.87;17.30;;;8.90;99.90;;;-141.84;72.88;19021.31;5068207;28;20258;-49
2024/03/21 02:08:48;;;;;;;22.93;18.77;;;8.90;99.90;;;-141.84;73.75;19100.53;5056424;28;20220;-51
2024/03/21 02:11:15;;;;;;;26.10;19.60;;;8.80;99.90;;;-141.84;73.53;19100.53;5062170;28;20716;-53
2024/03/21 02:13:46;;;;;;;22.17;18.47;;;8.80;99.90;;;-141.84;74.08;19143.22;5071039;28;20200;-52
2024/03/21 02:16:12;;;;;;;23.73;19.00;;;8.80;99.90;;;-141.84;74.45;19204.19;5061038;28;20212;-52
2024/03/21 02:18:40;;;;;;;23.83;18.77;;;8.70;99.90;;;-141.84;74.89;19293.59;5062149;28;20217;-55
2024/03/21 02:22:35;;;;;;;24.87;19.60;;;8.70;99.90;;;-141.84;75.63;19403.31;5068713;28;20223;-52
2024/03/21 02:23:56;;;;;;;23.23;18.30;;;8.60;99.90;;;-141.84;76.12;19632.97;5074394;28;20234;-52
2024/03/21 02:26:24;;;;;;;24.80;19.60;;;8.60;99.90;;;-141.84;76.60;19844.31;5073852;28;20196;-52
2024/03/21 02:28:51;;;;;;;24.13;17.83;;;8.60;99.90;;;-141.84;76.77;19876.84;5081639;28;20727;-51
2024/03/21 02:31:19;;;;;;;25.30;19.57;;;8.50;99.90;;;-141.84;77.07;19968.31;5081138;28;20224;-51
2024/03/21 02:33:46;;;;;;;25.03;19.37;;;8.50;99.90;;;-141.84;76.52;19758.97;5059990;28;20220;-51
2024/03/21 02:36:13;;;;;;;25.90;19.20;;;8.50;99.90;;;-141.84;76.11;19500.88;5069077;28;20269;-52
2024/03/21 02:38:40;;;;;;;27.63;19.17;;;8.50;99.90;;;-141.84;75.29;19303.75;5060233;28;20278;-51
2024/03/21 02:41:08;;;;;;;21.50;18.93;;;8.50;99.90;;;-141.84;76.19;19565.91;5050221;28;20197;-50
2024/03/21 02:43:36;;;;;;;28.80;19.43;;;8.60;99.90;;;-141.84;75.56;19397.22;5078612;28;20571;-52
2024/03/21 02:46:02;;;;;;;25.70;18.93;;;8.60;99.90;;;-141.84;75.31;19338.28;5079083;28;20224;-50
2024/03/21 02:48:33;;;;;;;24.10;18.80;;;8.60;99.90;;;-141.84;75.32;19315.94;5073460;28;20225;-49
2024/03/21 02:51:00;;;;;;;25.63;18.87;;;8.70;99.90;;;-141.84;76.12;19543.53;5058966;28;20743;-50
2024/03/21 02:53:27;;;;;;;23.57;18.57;;;8.70;99.90;;;-141.84;75.23;19303.75;5058730;28;20220;-52
2024/03/21 02:55:53;;;;;;;24.20;18.53;;;8.80;99.90;;;-141.84;75.34;19344.41;5054349;28;20250;-51
2024/03/21 02:58:22;;;;;;;23.80;18.43;;;8.80;99.90;;;-141.84;75.41;19401.28;5081910;28;20223;-51
2024/03/21 03:00:48;;;;;;;25.80;19.37;;;8.80;99.90;;;-141.84;73.71;19074.13;5071248;28;20833;-51
2024/03/21 03:03:16;;;;;;;24.03;18.27;;;8.80;99.90;;;-141.84;72.45;18929.88;5073318;28;20603;-51
2024/03/21 03:05:42;;;;;;;24.80;18.73;;;8.90;99.90;;;-141.84;73.52;19017.25;5052977;28;20228;-51
2024/03/21 03:08:10;;;;;;;25.50;19.33;;;8.90;99.90;;;-141.84;74.52;19192.00;5062920;28;20205;-48
2024/03/21 03:10:37;;;;;;;22.80;18.20;;;8.90;99.90;;;-141.84;74.99;19291.56;5082668;28;20197;-52
2024/03/21 03:13:05;;;;;;;28.03;18.73;;;8.90;99.90;;;-141.84;75.38;19348.47;5064893;28;20274;-50
2024/03/21 03:15:33;;;;;;;23.40;17.73;;;8.90;99.90;;;-141.84;75.42;19413.47;5072598;28;20221;-54
2024/03/21 03:18:00;;;;;;;22.33;17.90;;;8.90;99.90;;;-141.84;74.91;19248.88;5058093;28;20216;-53
2024/03/21 03:20:27;;;;;;;23.03;18.30;;;8.90;99.90;;;-141.84;73.95;19157.44;5069234;28;20228;-51
2024/03/21 03:22:55;;;;;;;24.27;18.30;;;8.90;99.90;;;-141.84;74.10;19110.72;5088798;28;20208;-53
2024/03/21 03:25:22;;;;;;;24.10;18.37;;;8.90;99.90;;;-141.84;74.36;19159.47;5089474;28;20219;-50
2024/03/21 03:27:49;;;;;;;22.07;17.40;;;9.00;99.90;;;-141.84;74.59;19185.88;5081625;28;20232;-54
2024/03/21 03:30:16;;;;;;;23.27;17.53;;;9.00;99.90;;;-141.84;73.92;19122.91;5082041;28;20239;-52
2024/03/21 03:32:57;;;;;;;21.57;17.67;;;9.00;99.90;;;-141.84;73.75;19102.56;5076174;28;20612;-52
2024/03/21 03:35:34;;;;;;;22.07;17.30;;;9.00;99.90;;;-141.84;73.77;19070.06;5081291;28;20207;-52
2024/03/21 03:38:01;;;;;;;22.50;17.50;;;9.00;99.90;;;-141.84;74.13;19151.34;5057760;28;20193;-51
2024/03/21 03:40:28;;;;;;;23.43;17.23;;;9.00;99.90;;;-141.84;73.69;19035.53;5086542;28;20220;-51
2024/03/21 03:42:55;;;;;;;23.80;17.37;;;9.00;99.90;;;-141.84;72.69;18968.47;5065976;28;20236;-52
2024/03/21 03:45:22;;;;;;;23.33;18.03;;;9.00;99.90;;;-141.84;72.08;18925.81;5068630;28;20255;-51
2024/03/21 03:47:51;;;;;;;24.03;17.30;;;9.00;99.90;;;-141.84;71.82;18899.38;5059722;28;20571;-49
2024/03/21 03:50:19;;;;;;;20.80;16.87;;;9.00;99.90;;;-141.84;72.22;18950.19;5071680;28;20227;-54
2024/03/21 03:52:46;;;;;;;23.97;17.33;;;9.00;99.90;;;-141.84;71.50;18899.38;5084516;28;20195;-52
2024/03/21 03:55:13;;;;;;;21.40;16.73;;;9.00;99.90;;;-141.84;71.60;18893.28;5092491;28;20870;-53
2024/03/21 03:57:39;;;;;;;20.77;17.07;;;9.00;99.90;;;-141.84;73.38;19045.69;5065789;28;20221;-53
2024/03/21 04:00:10;;;;;;;20.30;16.30;;;8.90;99.90;;;-141.84;74.33;19149.31;5069093;28;20223;-51
2024/03/21 04:02:37;;;;;;;23.47;17.10;;;8.90;99.90;;;-141.84;75.29;19283.44;5073298;28;20726;-51
2024/03/21 04:05:09;;;;;;;22.60;17.60;;;8.80;99.90;;;-141.84;75.46;19403.31;5079770;28;20259;-53
2024/03/21 04:07:37;;;;;;;20.97;16.10;;;8.70;99.90;;;-141.84;76.05;19523.22;5084116;28;20218;-54
2024/03/21 04:10:06;;;;;;;22.60;17.30;;;8.70;99.90;;;-141.84;76.24;19732.53;5041020;28;20223;-54
2024/03/21 04:12:32;;;;;;;20.17;16.63;;;8.60;99.90;;;-141.84;76.95;19972.38;5064132;28;20232;-50
2024/03/21 04:15:00;;;;;;;21.57;16.70;;;8.70;99.90;;;-141.84;76.26;19730.50;5067011;28;20263;-50
2024/03/21 04:17:26;;;;;;;20.93;16.00;;;8.70;99.90;;;-141.84;73.38;18998.94;5060546;28;20278;-55
2024/03/21 04:19:53;;;;;;;21.40;15.57;;;8.80;99.90;;;-141.84;72.52;18942.06;5063366;28;20193;-55
2024/03/21 04:22:21;;;;;;;19.37;15.77;;;8.90;99.90;;;-141.84;74.28;19147.28;5066564;28;20221;-51
2024/03/21 04:24:48;;;;;;;19.60;16.67;;;8.90;99.90;;;-141.84;74.08;19094.44;5063005;28;20225;-52
2024/03/21 04:27:14;;;;;;;16.90;14.80;;;8.90;99.90;;;-141.84;75.56;19366.75;5079116;28;21352;-53
2024/03/21 04:29:42;;;;;;;17.40;14.20;;;8.90;99.90;;;-141.84;76.63;19769.13;5074472;28;20590;-52
2024/03/21 04:32:15;;;;;;;19.57;15.37;;;8.80;99.90;;;-141.84;77.00;20025.22;5091786;28;20565;-52
2024/03/21 04:34:43;;;;;;;22.67;15.93;;;8.80;99.90;;;-141.84;76.86;19899.19;5049685;28;20599;-52
2024/03/21 04:37:19;;;;;;;19.00;14.53;;;8.80;99.90;;;-141.84;76.48;19909.34;5082817;28;20623;-53
2024/03/21 04:39:49;;;;;;;19.13;15.10;;;8.70;99.90;;;-141.84;73.81;19098.50;5064862;28;20271;-51
2024/03/21 04:42:17;;;;;;;18.40;15.07;;;8.80;99.90;;;-141.84;75.53;19358.63;5066404;28;20217;-52
2024/03/21 04:44:45;;;;;;;19.97;16.33;;;8.80;99.90;;;-141.84;74.48;19224.50;5060335;28;20227;-52
2024/03/21 04:47:12;;;;;;;20.93;15.40;;;8.80;99.90;;;-141.84;74.69;19218.41;5061097;28;20209;-52
2024/03/21 04:49:40;;;;;;;19.93;14.60;;;8.80;99.90;;;-141.84;77.02;19903.25;5080759;28;20267;-52
2024/03/21 04:52:06;;;;;;;19.40;14.87;;;8.80;99.90;;;-141.84;76.77;19927.66;5062751;28;20283;-53
2024/03/21 04:54:33;;;;;;;17.63;14.50;;;8.80;99.90;;;-141.84;76.14;19665.47;5071760;28;20217;-53
2024/03/21 04:57:01;;;;;;;18.10;14.47;;;8.80;99.90;;;-141.84;76.84;19907.31;5066470;28;20221;-51
2024/03/21 04:59:29;;;;;;;18.67;14.90;;;8.80;99.90;;;-141.84;76.21;19661.41;5060373;28;20250;-53
2024/03/21 05:01:56;;;;;;;16.80;13.97;;;8.80;99.90;;;-141.84;76.65;19858.56;5060920;28;20212;-54
2024/03/21 05:04:24;;;;;;;17.20;13.97;;;8.80;99.90;;;-141.84;74.87;19313.91;5083781;28;20213;-49
2024/03/21 05:06:52;;;;;;;18.43;14.17;;;8.90;99.90;;;-141.84;72.14;18905.47;5079112;28;20228;-52
2024/03/21 05:09:20;;;;;;;15.53;13.70;;;9.00;99.90;;;-141.84;73.04;18980.66;5078087;28;20228;-50
2024/03/21 05:11:46;;;;;;;17.43;13.83;;;9.00;99.90;;;-141.84;74.82;19222.47;5057340;28;20232;-50
2024/03/21 05:14:15;;;;;;;15.90;12.80;;;9.00;99.90;;;-141.84;75.97;19537.44;5063469;28;20247;-52
2024/03/21 05:16:43;;;;;;;17.20;13.63;;;8.90;99.90;;;-141.84;77.07;19858.56;5080669;28;20208;-51
2024/03/21 05:19:11;;;;;;;15.90;12.50;;;8.80;99.90;;;-141.84;75.74;19470.38;5061709;28;20223;-49
2024/03/21 05:21:39;;;;;;;17.10;13.57;;;8.80;99.90;;;-141.84;75.60;19533.38;5075583;28;20216;-52
2024/03/21 05:24:07;;;;;;;17.97;13.50;;;8.90;99.90;;;-141.84;73.56;19007.06;5083353;28;20215;-51
2024/03/21 05:26:33;;;;;;;17.70;13.30;;;8.90;99.90;;;-141.84;74.25;19084.28;5082962;28;20217;-54
2024/03/21 05:29:01;;;;;;;15.33;13.17;;;8.90;99.90;;;-141.84;73.52;19045.69;5061288;28;20217;-51
2024/03/21 05:31:28;;;;;;;18.00;13.87;;;9.00;99.90;;;-141.84;73.86;19102.56;5062204;28;20220;-50
2024/03/21 05:33:58;;;;;;;13.97;12.47;;;9.00;99.90;;;-141.84;71.70;18935.97;5061125;28;20227;-50
2024/03/21 05:36:24;;;;;;;19.40;13.53;;;9.10;99.90;;;-141.84;72.86;19021.31;5061618;28;20222;-52
2024/03/21 05:38:51;;;;;;;16.30;13.10;;;9.10;99.90;;;-141.84;72.88;18990.81;5050932;28;20217;-54
2024/03/21 05:41:18;;;;;;;18.00;13.73;;;9.00;99.90;;;-141.84;72.44;18952.22;5059603;28;20201;-50
2024/03/21 05:43:45;;;;;;;16.30;12.33;;;9.20;99.90;;;-141.84;72.10;18950.19;5082059;28;20213;-54
2024/03/21 05:46:11;;;;;;;15.53;12.57;;;9.30;99.90;;;-141.84;72.01;18978.63;5081642;28;20216;-54
2024/03/21 05:48:41;;;;;;;17.67;12.27;;;9.30;99.90;;;-141.84;71.64;18913.59;5069561;28;20221;-54
2024/03/21 05:51:08;;;;;;;17.40;12.03;;;9.30;99.90;;;-141.84;72.04;18946.13;5060145;28;20720;-51
2024/03/21 05:53:35;;;;;;;16.47;12.43;;;9.40;99.90;;;-141.84;71.77;18927.84;5066510;28;20215;-53
2024/03/21 05:56:04;;;;;;;13.33;11.77;;;9.40;99.90;;;-141.84;71.70;18905.47;5083305;28;20204;-53
2024/03/21 05:58:31;;;;;;;15.63;12.60;;;9.40;99.90;;;-141.84;73.21;19029.44;5081217;28;20561;-53
2024/03/21 06:01:21;;;;;;;14.17;12.13;;;9.40;99.90;;;-141.84;71.18;18889.22;5061958;28;20258;-54
2024/03/21 06:03:51;;;;;;;16.00;12.20;;;9.50;99.90;;;-141.84;72.11;19015.19;5060933;28;20240;-54
2024/03/21 06:06:22;;;;;;;15.87;12.50;;;9.50;99.90;;;-141.84;71.42;18903.44;5065149;28;20217;-55
2024/03/21 06:08:49;;;;;;;14.47;12.07;;;9.50;99.90;;;-141.84;71.36;18933.94;5080968;28;20224;-52
2024/03/21 06:11:15;;;;;;;13.10;11.20;;;9.60;99.90;;;-141.84;70.79;18899.38;5061809;28;20204;-52
2024/03/21 06:13:42;;;;;;;14.23;12.13;;;9.60;99.90;;;-141.84;70.15;18858.75;5079855;28;20594;-53
2024/03/21 06:16:09;;;;;;;14.77;12.20;;;9.60;99.90;;;-141.84;68.98;18887.19;5055752;28;20233;-54
2024/03/21 06:18:37;;;;;;;12.37;11.10;;;9.70;99.90;;;-141.84;68.44;18826.25;5071536;28;20590;-54
2024/03/21 06:21:05;;;;;;;16.93;12.10;;;9.80;99.90;;;-141.84;70.29;18881.09;5079036;28;20242;-53
2024/03/21 06:23:32;;;;;;;14.57;11.13;;;9.70;99.90;;;-141.84;69.29;18830.31;5087078;28;20268;-53
2024/03/21 06:25:59;;;;;;;14.93;11.87;;;9.70;99.90;;;-141.84;67.61;18838.44;5082556;28;20212;-53
2024/03/21 06:28:27;;;;;;;13.67;11.37;;;9.80;99.90;;;-141.84;66.96;18842.50;5030785;28;20216;-53
2024/03/21 06:30:53;;;;;;;12.87;11.30;;;10.00;99.90;;;-141.84;67.75;18832.34;5080047;28;20228;-53
2024/03/21 06:33:22;;;;;;;15.57;11.00;;;10.00;99.90;;;-141.84;66.74;18828.28;5083478;28;20216;-51
2024/03/21 06:35:49;;;;;;;17.97;11.13;;;10.00;99.90;;;-141.84;68.04;18832.34;5073653;28;20705;-51
2024/03/21 06:38:20;;;;;;;14.30;10.67;;;10.10;99.90;;;-141.84;67.22;18818.09;5060633;28;20204;-53
2024/03/21 06:40:47;;;;;;;14.67;11.53;;;10.00;99.90;;;-141.84;65.94;18812.00;5085890;28;20195;-53
2024/03/21 06:43:14;;;;;;;12.13;10.43;;;10.20;99.90;;;-141.84;66.20;18838.44;5086913;28;20212;-53
2024/03/21 06:45:40;;;;;;;13.73;11.20;;;10.20;99.90;;;-141.84;67.31;18893.28;5086562;28;20274;-50
2024/03/21 06:48:08;;;;;;;13.83;10.87;;;10.20;99.90;;;-141.84;67.46;18848.59;5083597;28;20224;-52
2024/03/21 06:50:35;;;;;;;17.20;11.70;;;10.20;99.90;;;-141.84;66.54;18830.31;5074687;28;20220;-51
2024/03/21 06:53:02;;;;;;;14.37;10.97;;;10.20;99.90;;;-141.84;66.28;18830.31;5089123;28;20199;-53
2024/03/21 06:55:30;;;;;;;13.23;10.53;;;10.30;99.90;;;-141.84;67.16;18858.75;5085956;28;20220;-53
2024/03/21 06:57:59;;;;;;;12.87;10.93;;;10.30;99.90;;;-141.84;65.60;18854.69;5088084;28;20220;-52
2024/03/21 07:00:27;;;;;;;12.43;10.13;;;10.40;99.90;;;-141.84;66.24;18834.38;5077068;28;20213;-48
2024/03/21 07:02:55;;;;;;;11.43;10.00;;;10.50;99.90;;;-141.84;65.56;18846.56;5068442;28;20747;-53
2024/03/21 07:05:23;;;;;;;14.73;11.30;;;10.50;99.90;;;-141.84;63.16;18842.50;5064734;28;20576;-53
2024/03/21 07:07:50;;;;;;;13.20;11.47;;;10.60;99.90;;;-141.84;63.97;18848.59;5071613;28;20205;-54
2024/03/21 07:10:18;;;;;;;14.20;11.07;;;10.70;99.90;;;-141.84;63.42;18858.75;5088225;28;20246;-53
2024/03/21 07:12:46;;;;;;;14.70;10.53;;;10.70;99.90;;;-141.84;62.92;18842.50;5073513;28;20229;-50
2024/03/21 07:15:14;;;;;;;11.67;10.47;;;10.80;99.90;;;-141.84;62.98;18846.56;5065873;28;20236;-51
2024/03/21 07:17:41;;;;;;;12.63;10.53;;;10.80;99.90;;;-141.84;63.62;18830.31;5064509;28;20298;-53
2024/03/21 07:20:10;;;;;;;15.33;11.43;;;10.90;99.90;;;-141.84;63.25;18826.25;5067568;28;20196;-54
2024/03/21 07:22:38;;;;;;;16.80;10.60;;;11.00;99.90;;;-141.84;61.45;18866.88;5085338;28;20201;-54
2024/03/21 07:25:07;;;;;;;13.30;10.30;;;11.10;99.90;;;-141.84;61.54;18883.13;5082304;28;20212;-55
2024/03/21 07:27:34;;;;;;;11.20;9.57;;;11.20;99.90;;;-141.84;61.12;18868.91;5082688;28;20875;-53
2024/03/21 07:30:07;;;;;;;12.23;10.30;;;11.40;99.90;;;-141.84;59.57;18877.03;5082617;28;20233;-54
2024/03/21 07:32:34;;;;;;;13.63;10.50;;;11.40;99.90;;;-141.84;58.96;18911.56;5061585;28;20278;-50
2024/03/21 07:35:02;;;;;;;11.40;10.07;;;11.60;99.90;;;-141.84;59.55;18921.75;5068492;28;20213;-51
2024/03/21 07:37:28;;;;;;;11.97;9.67;;;11.60;99.90;;;-141.84;60.04;18909.53;5085065;28;20220;-53
2024/03/21 07:39:55;;;;;;;12.37;10.60;;;11.70;99.90;;;-141.84;58.92;18921.75;5087705;28;20207;-53
2024/03/21 07:42:24;;;;;;;12.13;10.23;;;11.80;99.90;;;-141.84;58.29;18940.03;5072212;28;20213;-54
2024/03/21 07:44:51;;;;;;;10.73;9.63;;;11.90;99.90;;;-141.84;58.00;18944.09;5065325;28;20226;-54
2024/03/21 07:47:19;;;;;;;12.10;9.87;;;12.00;99.90;;;-141.84;58.73;18954.25;5067405;28;20201;-56
2024/03/21 07:49:47;;;;;;;16.00;10.17;;;12.00;99.90;;;-141.84;57.76;18938.00;5085525;28;20217;-54
2024/03/21 07:52:13;;;;;;;12.50;9.23;;;12.00;99.90;;;-141.84;57.98;18948.16;5083288;28;20213;-51
2024/03/21 07:54:42;;;;;;;11.27;9.53;;;12.10;99.90;;;-141.84;57.53;18966.44;5090906;28;20220;-54
2024/03/21 07:57:08;;;;;;;10.77;9.63;;;12.10;99.90;;;-141.84;56.43;18974.56;5067155;28;20743;-55
2024/03/21 07:59:35;;;;;;;12.67;10.40;;;12.30;99.90;;;-141.84;56.72;18970.50;5065459;28;20227;-53
2024/03/21 08:02:04;;;;;;;13.87;10.20;;;12.30;99.90;;;-141.84;56.58;18984.72;5074683;28;20207;-50
2024/03/21 08:04:33;;;;;;;14.85;9.85;;;12.30;99.90;;;-141.84;56.69;18954.25;5065462;28;20236;-53
2024/03/21 08:07:01;;;;;;;14.43;10.27;;;12.30;99.90;;;-141.84;57.81;18956.28;5065748;28;20217;-51
2024/03/21 08:09:29;;;;;;;12.77;10.27;;;12.20;99.90;;;-141.84;58.21;18970.50;5071223;28;20231;-54
2024/03/21 08:11:56;;;;;;;10.20;9.13;;;12.20;99.90;;;-141.84;58.89;18958.31;5083420;28;20232;-54
2024/03/21 08:14:24;;;;;;;12.47;10.10;;;12.20;99.90;;;-141.84;57.74;18982.69;5061486;28;20270;-54
2024/03/21 08:16:50;;;;;;;13.60;9.77;;;12.20;99.90;;;-141.84;58.14;18960.34;5090602;28;20697;-53
2024/03/21 08:19:18;;;;;;;14.53;10.53;;;12.20;99.90;;;-141.84;57.54;18952.22;5061498;28;20731;-49
2024/03/21 08:21:46;;;;;;;11.68;8.85;;;12.20;99.90;;;-141.84;57.85;18958.31;5091511;28;20223;-52
2024/03/21 08:24:13;;;;;;;12.40;9.83;;;12.30;99.90;;;-141.84;57.98;18974.56;5089103;28;20618;-51
2024/03/21 08:26:41;;;;;;;14.57;11.37;;;12.40;99.90;;;-141.84;57.95;18956.28;5074769;28;20295;-52
2024/03/21 08:29:07;;;;;;;11.43;9.67;;;12.50;99.90;;;-141.84;58.07;18960.34;5057290;28;20223;-59
2024/03/21 08:31:34;;;;;;;16.00;12.83;;;12.50;99.90;;;-141.84;57.48;19015.19;5082498;28;20241;-59
2024/03/21 08:34:00;;;;;;;11.60;9.83;;;12.40;99.90;;;-141.84;57.78;18952.22;5102978;28;20219;-57
2024/03/21 08:36:27;;;;;;;11.47;9.67;;;12.40;99.90;;;-141.84;57.71;18946.13;5112019;27;20571;-57
2024/03/21 08:38:55;;;;;;;12.63;9.67;;;12.50;99.90;;;-141.84;58.00;18964.41;5109461;28;20578;-59
2024/03/21 08:41:24;;;;;;;11.10;9.93;;;12.50;99.90;;;-141.84;57.88;18958.31;5114499;27;20231;-59
2024/03/21 08:43:51;;;;;;;12.20;9.27;;;12.40;99.90;;;-141.84;58.16;18954.25;5114370;27;20205;-60
2024/03/21 08:46:18;;;;;;;10.73;9.63;;;12.50;99.90;;;-141.84;58.44;18964.41;5110706;28;20241;-60
2024/03/21 08:48:44;;;;;;;13.93;10.93;;;12.40;99.90;;;-141.84;58.55;18998.94;5110283;28;20634;-59
2024/03/21 08:51:12;;;;;;;10.00;9.00;;;12.40;99.90;;;-141.84;58.49;18974.56;5112621;27;20589;-60
2024/03/21 08:53:38;;;;;;;11.32;9.98;;;12.40;99.90;;;-141.84;58.39;18978.63;5106576;28;20241;-61
2024/03/21 08:56:07;;;;;;;12.07;10.17;;;12.50;99.90;;;-141.84;57.89;19017.25;5110506;28;20215;-59
2024/03/21 08:58:33;;;;;;;14.25;9.88;;;12.60;99.90;;;-141.84;57.31;18986.75;5114586;27;20210;-59
2024/03/21 09:01:00;;;;;;;12.13;9.80;;;12.70;99.90;;;-141.84;56.06;19027.41;5113758;27;20578;-59
2024/03/21 09:03:27;;;;;;;11.48;10.27;;;12.90;99.90;;;-141.84;55.15;19072.09;5112487;27;20221;-60
2024/03/21 09:05:54;;;;;;;13.35;10.95;;;13.10;99.90;;;-141.84;53.38;19100.53;5113462;27;20264;-62
2024/03/21 09:08:20;;;;;;;12.13;10.30;;;13.40;99.90;;;-141.84;53.65;19118.84;5114070;27;20251;-62
2024/03/21 09:10:48;;;;;;;11.68;10.50;;;13.60;99.90;;;-141.84;52.84;19157.44;5113893;27;20737;-61
2024/03/21 09:13:16;;;;;;;14.00;10.98;;;13.70;99.90;;;-141.84;52.78;19159.47;5113401;27;20245;-59
2024/03/21 09:15:43;;;;;;;14.25;11.68;;;13.70;99.90;;;-141.84;52.16;19183.84;5113777;27;20222;-58
2024/03/21 09:18:09;;;;;;;13.93;11.85;;;13.90;99.90;;;-141.84;52.11;19151.34;5113746;27;20264;-58
2024/03/21 09:20:36;;;;;;;12.50;11.20;;;14.00;99.90;;;-141.84;51.78;19200.13;5112403;27;20265;-58
2024/03/21 09:23:03;;;;;;;12.85;10.57;;;14.10;99.90;;;-141.84;52.01;19159.47;5113817;27;20218;-57
2024/03/21 09:25:30;;;;;;;14.10;11.18;;;14.20;99.90;;;-141.84;51.96;19183.84;5108670;27;20228;-57
2024/03/21 09:27:57;;;;;;;12.60;11.30;;;14.40;99.90;;;-141.84;52.06;19187.91;5113215;27;20227;-61
2024/03/21 09:30:25;;;;;;;14.60;11.13;;;14.50;99.90;;;-141.84;50.76;19234.66;5111571;27;20280;-62
2024/03/21 09:32:51;;;;;;;12.65;11.20;;;14.70;99.90;;;-141.84;52.26;19189.97;5113564;27;20226;-61
2024/03/21 09:35:19;;;;;;;12.77;11.05;;;14.60;99.90;;;-141.84;53.32;19169.63;5112921;27;20581;-62
2024/03/21 09:37:45;;;;;;;13.25;11.30;;;14.40;99.90;;;-141.84;53.32;19169.63;5113508;27;20731;-60
2024/03/21 09:40:13;;;;;;;12.85;11.52;;;14.30;99.90;;;-141.84;53.65;19155.41;5113404;27;20221;-63
2024/03/21 09:42:39;;;;;;;12.35;10.88;;;14.30;99.90;;;-141.84;53.94;19147.28;5111922;27;20761;-60
2024/03/21 09:45:13;;;;;;;12.90;10.30;;;14.20;99.90;;;-141.84;53.77;19171.66;5109757;28;20219;-61
2024/03/21 09:47:44;;;;;;;11.52;10.27;;;14.30;99.90;;;-141.84;53.78;19161.50;5110160;28;20719;-61
2024/03/21 09:50:12;;;;;;;10.55;9.45;;;14.30;99.90;;;-141.84;53.44;19183.84;5113506;27;20220;-59
2024/03/21 09:52:40;;;;;;;12.43;9.23;;;14.30;99.90;;;-141.84;54.19;19151.34;5110666;28;20195;-60
2024/03/21 09:55:15;;;;;;;10.05;8.57;;;14.20;99.90;;;-141.84;54.53;19141.19;5111009;27;20324;-58
2024/03/21 09:57:42;;;;;;;10.45;8.35;;;14.10;99.90;;;-141.84;54.79;19120.88;5110020;28;20230;-58
2024/03/21 10:00:12;;;;;;;9.55;8.57;;;14.10;99.90;;;-141.84;55.07;19153.38;5109561;28;20215;-56